Startpagina
METAR-TAF:

METAR-TAF

Vliegvelden :

Vliegbasis Woensdrecht

Woensdrecht, Nederland

breedte: 51-27N, lengte: 004-20E, hoogte: 20 m

Actueel weer

Dit bericht is 28 minuten geleden gemaakt, om 21:55 UTC
Wind 2 kt uit variabele richting
Temperatuur 13°C
Vochtigheid 88%
Druk 1024 hPa
Zicht 10 km of meer
Weinig wolken op 41000 ft

METAR: EHWO 242155Z AUTO VRB02KT 9999 FEW410 13/11 Q1024 BLU

Tijdstip: 00:23 (22:23 UTC)


TAF: ontbreekt

Waarnemingen en weersverwachtingen van meer dan 4000 vliegvelden (METAR en TAF).

De beschikbare stations zijn de gele en rode punten op de kaart.

Ga met uw muis naar het station om de naam te zien.

Klik dan om waarnemingen en weersverwachtingen te zien.

kaart wijzigen: klik op de groene knoppen met een zwart kruis om in te zoomen, op de groene knop met een streepje om uit te zoomen of op de groene pijlen voor aangrenzende kaarten.


METAR-TAF: